Watertown, SD (57201)

6:05 AM CST on December 11, 2016 (GMT -0600)
212 And 81 | | Change Station
Active Advisory: Winter Storm Warning

Elev 1722 ft 44.89 °N, 97.11 °W | Updated 4 seconds ago

Light Snow
Light Snow
10.9 °F
Feels Like 11 °F
N
1.1
Wind Variable Wind from West

Today
High -- | Low -- °F
--% Chance of Precip.
Yesterday
High -- | Low -- °F
Precip. -- in
Pressure 29.98 in
Visibility 2.5 miles
Clouds Mostly Cloudy 3500 ft
Overcast 4600 ft
Windchill 11 °F
Dew Point 9 °F
Humidity 91%
Rainfall 0.00 in
Snow Depth Not available.
7:56 AM 4:47 PM
Waxing Gibbous, 91% visible
METAR KATY 111153Z AUTO 07008KT 2 1/2SM -SN BKN035 OVC046 M11/M14 A2986 RMK AO2 SLP152 P0000 60004 70022 T11111139 11111 21133 51005 $
Pressure 29.98 in
Visibility 2.5 miles
Clouds Mostly Cloudy 3500 ft
Overcast 4600 ft
Windchill 11 °F
Dew Point 9 °F
Humidity 91%
Rainfall 0.00 in
Snow Depth Not available.
7:56 AM 4:47 PM
Waxing Gibbous, 91% visible
METAR KATY 111153Z AUTO 07008KT 2 1/2SM -SN BKN035 OVC046 M11/M14 A2986 RMK AO2 SLP152 P0000 60004 70022 T11111139 11111 21133 51005 $

10-Day Weather Forecast

Almanac

Astronomy

Dec. 11, 2016 Rise Set
Actual Time
Civil Twilight
Nautical Twilight
Astronomical Twilight
Moon
Length of Visible Light
Length of Day
Tomorrow will be .
, % of the Moon is Illuminated

Today's Extremes

State Highs State Lows

Community

WunderPhotos

Upload Photos

1,956,710 photos uploaded!

WunderBlog® & News

Nearby

Air Quality

  Air Quality AQ Index Pollutant
Not available.

Snow Depth

Station Depth Elevation

Earthquake Activity

City Distance Mag. Time & Date
Minimum magnitude displayed is 2.5.

Coastal Water Temperatures

Place Temperature

Stations

Nearby Weather Stations

Station Location Temp. Windchill Dew Point Humidity Wind Precip. Elev Updated Type
                   

Watches & Warnings

Winter Storm Warning
Issued: 4:57 AM CST Dec. 11, 2016 – National Weather Service

... Winter Storm Warning remains in effect until 9 am CST this
morning...

* timing... light snow will continue through the early morning
hours.

* Snow accumulations... additional snow accumulations around 1
inch. Storm total snow accumulations of 5 to 9 inches.

Precautionary/preparedness actions...

A Winter Storm Warning for snow means severe winter weather
conditions are occurring. If you must travel... keep an extra
flashlight... food and water in your vehicle in case of an
emergency. The latest Road conditions for the state you are
calling from can be obtained by calling 5 1 1.